createdAt,value
2018-02-17T00:01:27.914Z,79.77
2018-02-17T00:03:57.127Z,79.70
2018-02-17T00:06:26.339Z,79.73
2018-02-17T00:08:55.614Z,79.98
2018-02-17T00:11:24.822Z,80.10
2018-02-17T00:13:54.047Z,80.29
2018-02-17T00:16:23.267Z,80.43
2018-02-17T00:18:52.483Z,80.51
2018-02-17T00:21:21.706Z,80.75
2018-02-17T00:23:50.934Z,80.80
2018-02-17T00:26:20.174Z,80.93
2018-02-17T00:28:50.218Z,81.06
2018-02-17T00:31:19.572Z,81.00
2018-02-17T00:33:50.288Z,80.90
2018-02-17T00:36:19.527Z,80.84
2018-02-17T00:38:49.532Z,81.01
2018-02-17T00:41:18.759Z,81.04
2018-02-17T00:43:48.758Z,81.06
2018-02-17T00:46:18.825Z,81.06
2018-02-17T00:48:48.770Z,81.02
2018-02-17T00:51:18.195Z,81.01
2018-02-17T00:53:48.191Z,80.90
2018-02-17T00:56:17.407Z,80.91
2018-02-17T00:58:46.583Z,80.86
2018-02-17T01:01:15.827Z,80.93
2018-02-17T01:03:45.107Z,80.97
2018-02-17T01:06:15.827Z,80.86
2018-02-17T01:08:45.826Z,80.71
2018-02-17T01:11:15.068Z,80.62
2018-02-17T01:13:46.037Z,80.69
2018-02-17T01:16:15.269Z,80.68
2018-02-17T01:18:44.494Z,80.56
2018-02-17T01:21:14.502Z,80.61
2018-02-17T01:23:43.916Z,80.86
2018-02-17T01:26:13.592Z,80.92
2018-02-17T01:28:42.845Z,81.00
2018-02-17T01:31:12.813Z,81.02
2018-02-17T01:33:42.054Z,81.10
2018-02-17T01:36:12.028Z,81.01
2018-02-17T01:38:41.318Z,81.21
2018-02-17T01:41:10.561Z,81.25
2018-02-17T01:43:40.547Z,81.26
2018-02-17T01:46:09.827Z,81.39
2018-02-17T01:48:39.103Z,81.35
2018-02-17T01:51:08.324Z,81.43
2018-02-17T01:53:37.551Z,81.44
2018-02-17T01:56:06.840Z,81.42
2018-02-17T01:58:37.620Z,81.18
2018-02-17T02:01:06.819Z,80.78
2018-02-17T02:03:37.132Z,80.93
2018-02-17T02:06:07.130Z,80.88
2018-02-17T02:08:37.185Z,80.87
2018-02-17T02:11:06.444Z,80.97
2018-02-17T02:13:35.687Z,81.02
2018-02-17T02:16:04.906Z,81.17
2018-02-17T02:18:34.314Z,81.28
2018-02-17T02:21:03.607Z,81.28
2018-02-17T02:23:32.814Z,81.08
2018-02-17T02:26:02.916Z,80.97
2018-02-17T02:28:32.871Z,81.25
2018-02-17T02:31:02.926Z,81.46
2018-02-17T02:33:32.102Z,81.55
2018-02-17T02:36:01.324Z,81.72
2018-02-17T02:38:30.527Z,81.78
2018-02-17T02:40:59.779Z,81.82
2018-02-17T02:43:29.795Z,81.68
2018-02-17T02:45:59.157Z,81.14
2018-02-17T02:48:28.359Z,81.21
2018-02-17T02:50:57.685Z,81.24
2018-02-17T02:53:26.884Z,81.60
2018-02-17T02:55:56.108Z,81.50
2018-02-17T02:58:25.324Z,81.44
2018-02-17T03:00:54.561Z,81.20
2018-02-17T03:03:23.811Z,81.61
2018-02-17T03:05:53.806Z,81.54
2018-02-17T03:08:23.825Z,81.81
2018-02-17T03:10:53.067Z,81.83
2018-02-17T03:13:22.363Z,81.82
2018-02-17T03:15:51.616Z,81.73
2018-02-17T03:18:20.838Z,81.76
2018-02-17T03:20:50.828Z,81.74
2018-02-17T03:23:20.060Z,81.76
2018-02-17T03:25:50.018Z,81.69
2018-02-17T03:28:19.341Z,81.62
2018-02-17T03:30:48.557Z,81.56
2018-02-17T03:33:17.946Z,81.48
2018-02-17T03:35:47.975Z,81.31
2018-02-17T03:38:17.340Z,81.54
2018-02-17T03:40:46.538Z,81.72
2018-02-17T03:43:15.823Z,81.85
2018-02-17T03:45:45.039Z,82.05
2018-02-17T03:48:14.262Z,81.79
2018-02-17T03:50:44.226Z,82.00
2018-02-17T03:53:13.434Z,81.45
2018-02-17T03:55:42.736Z,81.23
2018-02-17T03:58:12.107Z,81.26
2018-02-17T04:00:41.322Z,81.21
2018-02-17T04:03:10.527Z,81.35
2018-02-17T04:05:39.754Z,81.35
2018-02-17T04:08:08.979Z,81.25
2018-02-17T04:10:38.374Z,81.15
2018-02-17T04:13:08.596Z,81.06
2018-02-17T04:15:38.604Z,81.11
2018-02-17T04:18:08.671Z,81.12
2018-02-17T04:20:37.934Z,81.11
2018-02-17T04:23:07.916Z,81.23
2018-02-17T04:25:37.231Z,81.36
2018-02-17T04:28:06.544Z,81.54
2018-02-17T04:30:36.523Z,81.66
2018-02-17T04:33:05.751Z,81.82
2018-02-17T04:35:35.134Z,81.65
2018-02-17T04:38:04.420Z,81.68
2018-02-17T04:54:14.267Z,82.28
2018-02-17T04:59:56.476Z,82.51
2018-02-17T05:02:32.642Z,82.64
2018-02-17T05:08:24.716Z,82.73
2018-02-17T05:10:54.699Z,82.69
2018-02-17T05:13:23.992Z,82.70
2018-02-17T05:15:58.614Z,82.71
2018-02-17T05:18:33.625Z,82.70
2018-02-17T05:21:14.671Z,82.42
2018-02-17T05:23:45.183Z,82.28
2018-02-17T05:26:14.734Z,82.52
2018-02-17T05:28:46.378Z,82.62
2018-02-17T05:31:15.971Z,82.51
2018-02-17T05:33:55.105Z,82.40
2018-02-17T05:36:24.995Z,82.66
2018-02-17T05:38:54.976Z,82.70
2018-02-17T05:54:47.525Z,83.00
2018-02-17T05:57:16.759Z,82.94
2018-02-17T05:59:45.988Z,83.03
2018-02-17T06:02:15.211Z,83.05
2018-02-17T06:04:44.450Z,83.07
2018-02-17T06:07:13.696Z,82.97
2018-02-17T06:09:43.061Z,82.84
2018-02-17T06:12:12.409Z,82.83
2018-02-17T06:14:41.614Z,82.77
2018-02-17T06:17:11.602Z,82.92
2018-02-17T06:19:40.985Z,82.99
2018-02-17T06:22:10.207Z,82.90
2018-02-17T06:24:39.424Z,82.62
2018-02-17T06:27:08.858Z,82.56
2018-02-17T06:29:38.076Z,82.79
2018-02-17T06:32:07.301Z,83.07
2018-02-17T06:34:36.548Z,82.93
2018-02-17T06:37:05.786Z,83.43
2018-02-17T06:39:34.999Z,83.77
2018-02-17T06:42:04.527Z,83.83
2018-02-17T06:44:34.494Z,84.08
2018-02-17T06:47:03.742Z,84.10
2018-02-17T06:49:33.724Z,83.78
2018-02-17T06:52:02.940Z,83.67
2018-02-17T06:54:32.128Z,83.51
2018-02-17T06:57:01.330Z,83.66
2018-02-17T06:59:30.538Z,83.82
2018-02-17T07:02:01.412Z,83.97
2018-02-17T07:04:30.834Z,84.17
2018-02-17T07:07:00.277Z,84.21
2018-02-17T07:09:29.699Z,83.48
2018-02-17T07:11:58.902Z,82.93
2018-02-17T07:14:28.320Z,82.42
2018-02-17T07:16:57.544Z,82.40
2018-02-17T07:19:26.899Z,82.58
2018-02-17T07:21:56.285Z,82.34
2018-02-17T07:24:25.698Z,81.99
2018-02-17T07:26:54.911Z,81.56
2018-02-17T07:29:24.127Z,81.58
2018-02-17T07:31:53.361Z,81.56
2018-02-17T07:34:22.602Z,80.89
2018-02-17T07:36:51.852Z,81.13
2018-02-17T07:39:21.460Z,81.28
2018-02-17T07:41:51.458Z,81.41
2018-02-17T07:44:20.671Z,80.80
2018-02-17T07:46:49.896Z,80.63
2018-02-17T07:49:19.891Z,80.20
2018-02-17T07:51:49.191Z,80.20
2018-02-17T07:54:18.554Z,80.58
2018-02-17T07:56:47.766Z,80.47
2018-02-17T07:59:16.979Z,80.53
2018-02-17T08:01:46.228Z,80.12
2018-02-17T08:04:16.172Z,80.62
2018-02-17T08:06:45.387Z,81.27
2018-02-17T08:09:14.623Z,81.42
2018-02-17T08:11:43.932Z,81.57
2018-02-17T08:14:13.931Z,81.42
2018-02-17T08:16:44.037Z,81.60
2018-02-17T08:19:13.234Z,81.00
2018-02-17T08:21:42.492Z,81.26
2018-02-17T08:24:11.747Z,81.57
2018-02-17T08:26:41.795Z,81.33
2018-02-17T08:29:11.023Z,80.20
2018-02-17T08:31:40.245Z,80.75
2018-02-17T08:34:09.462Z,80.48
2018-02-17T08:36:39.430Z,79.95
2018-02-17T08:39:08.746Z,79.55
2018-02-17T08:41:38.112Z,80.14
2018-02-17T08:44:07.333Z,79.38
2018-02-17T08:46:36.539Z,79.39
2018-02-17T08:49:05.763Z,79.21
2018-02-17T08:51:35.736Z,78.57
2018-02-17T08:54:05.047Z,78.29
2018-02-17T08:56:34.451Z,78.72
2018-02-17T08:59:03.702Z,77.70
2018-02-17T09:01:32.931Z,78.03
2018-02-17T09:04:02.156Z,78.11
2018-02-17T09:06:31.363Z,78.75
2018-02-17T09:09:00.686Z,78.56
2018-02-17T09:11:29.916Z,78.63
2018-02-17T09:13:59.126Z,78.56
2018-02-17T09:16:28.371Z,78.67
2018-02-17T09:18:57.680Z,78.56
2018-02-17T09:21:26.887Z,78.02
2018-02-17T09:23:56.372Z,78.72
2018-02-17T09:26:25.600Z,78.30
2018-02-17T09:28:54.837Z,78.94
2018-02-17T09:31:24.139Z,79.09
2018-02-17T09:33:53.408Z,78.92
2018-02-17T09:36:23.421Z,79.51
2018-02-17T09:38:52.618Z,79.92
2018-02-17T09:41:21.875Z,79.66
2018-02-17T09:43:51.871Z,79.97
2018-02-17T09:46:21.859Z,79.64
2018-02-17T09:48:51.115Z,79.44
2018-02-17T09:51:21.090Z,79.34
2018-02-17T09:53:50.550Z,79.21
2018-02-17T09:56:19.864Z,78.92
2018-02-17T09:58:49.087Z,78.75
2018-02-17T10:01:18.335Z,78.44
2018-02-17T10:03:48.660Z,78.21
2018-02-17T10:06:19.764Z,77.82
2018-02-17T10:08:49.018Z,78.55
2018-02-17T10:11:19.793Z,78.27
2018-02-17T10:13:48.979Z,78.42
2018-02-17T10:16:18.344Z,77.64
2018-02-17T10:18:48.527Z,78.59
2018-02-17T10:21:18.620Z,78.83
2018-02-17T10:23:47.883Z,78.79
2018-02-17T10:26:17.143Z,79.32
2018-02-17T10:28:46.360Z,79.21
2018-02-17T10:31:16.458Z,78.10
2018-02-17T10:33:46.625Z,78.18
2018-02-17T10:36:15.885Z,78.39
2018-02-17T10:38:45.857Z,78.96
2018-02-17T10:41:15.199Z,77.75
2018-02-17T10:43:44.956Z,77.51
2018-02-17T10:46:14.153Z,76.86
2018-02-17T10:48:43.352Z,76.25
2018-02-17T10:51:12.583Z,76.29
2018-02-17T10:53:41.811Z,76.04
2018-02-17T10:56:11.047Z,75.07
2018-02-17T10:58:40.313Z,75.61
2018-02-17T11:01:09.572Z,75.13
2018-02-17T11:03:38.819Z,74.55
2018-02-17T11:06:08.784Z,74.44
2018-02-17T11:08:38.079Z,75.03
2018-02-17T11:11:07.350Z,74.81
2018-02-17T11:13:36.548Z,74.97
2018-02-17T11:16:05.775Z,74.77
2018-02-17T11:18:35.031Z,74.68
2018-02-17T11:21:04.240Z,74.51
2018-02-17T11:23:33.454Z,74.93
2018-02-17T11:26:02.703Z,75.09
2018-02-17T11:28:31.966Z,74.70
2018-02-17T11:31:01.225Z,73.79
2018-02-17T11:33:30.551Z,73.59
2018-02-17T11:35:59.766Z,73.25
2018-02-17T11:38:30.509Z,73.34
2018-02-17T11:40:59.902Z,73.56
2018-02-17T11:43:29.130Z,73.57
2018-02-17T11:45:59.137Z,72.72
2018-02-17T11:48:29.159Z,73.30
2018-02-17T11:50:59.156Z,73.09
2018-02-17T11:53:28.538Z,72.78
2018-02-17T11:55:57.784Z,72.15
2018-02-17T11:58:27.771Z,72.56
2018-02-17T12:00:57.179Z,71.80
2018-02-17T12:03:27.165Z,71.51
2018-02-17T12:05:56.493Z,71.87
2018-02-17T12:08:26.466Z,72.17
2018-02-17T12:10:55.713Z,72.23
2018-02-17T12:13:25.117Z,72.15
2018-02-17T12:15:54.324Z,71.75
2018-02-17T12:18:24.554Z,71.46
2018-02-17T12:20:53.789Z,71.39
2018-02-17T12:23:23.335Z,71.04
2018-02-17T12:25:53.338Z,71.15
2018-02-17T12:28:22.629Z,70.63
2018-02-17T12:30:51.870Z,70.67
2018-02-17T12:33:21.148Z,70.23
2018-02-17T12:35:50.349Z,70.77
2018-02-17T12:38:19.569Z,70.76
2018-02-17T12:40:49.529Z,70.59
2018-02-17T12:43:18.789Z,70.51
2018-02-17T12:45:48.755Z,69.85
2018-02-17T12:48:17.986Z,68.57
2018-02-17T12:50:47.943Z,69.21
2018-02-17T12:53:17.240Z,68.71
2018-02-17T12:55:46.430Z,68.98
2018-02-17T12:58:15.679Z,68.71
2018-02-17T13:00:44.889Z,68.65
2018-02-17T13:03:14.868Z,68.43
2018-02-17T13:05:44.081Z,67.78
2018-02-17T13:08:13.303Z,68.05
2018-02-17T13:10:43.314Z,67.79
2018-02-17T13:13:13.327Z,68.36
2018-02-17T13:15:42.547Z,66.81
2018-02-17T13:18:12.743Z,66.51
2018-02-17T13:20:42.923Z,66.31
2018-02-17T13:23:12.175Z,67.02
2018-02-17T13:25:41.480Z,66.87
2018-02-17T13:28:17.276Z,65.89
2018-02-17T13:30:46.628Z,66.17
2018-02-17T13:33:15.858Z,67.20
2018-02-17T13:35:45.230Z,67.26
2018-02-17T13:38:14.478Z,66.97
2018-02-17T13:40:43.689Z,67.78
2018-02-17T13:43:12.911Z,67.60
2018-02-17T13:45:42.895Z,67.12
2018-02-17T13:48:12.115Z,67.59
2018-02-17T13:50:42.117Z,67.29
2018-02-17T13:53:11.421Z,67.50
2018-02-17T13:55:40.788Z,67.83
2018-02-17T13:58:10.212Z,67.25
2018-02-17T14:00:40.119Z,67.67
2018-02-17T14:03:09.344Z,67.66
2018-02-17T14:05:38.570Z,67.93
2018-02-17T14:08:07.792Z,67.81
2018-02-17T14:10:37.061Z,67.60
2018-02-17T14:13:07.134Z,67.82
2018-02-17T14:15:36.603Z,67.10
2018-02-17T14:18:06.775Z,67.04
2018-02-17T14:20:36.124Z,67.42
2018-02-17T14:23:05.365Z,66.88
2018-02-17T14:25:34.581Z,66.12
2018-02-17T14:28:04.543Z,65.90
2018-02-17T14:30:33.800Z,65.94
2018-02-17T14:33:03.005Z,65.90
2018-02-17T14:35:32.258Z,65.91
2018-02-17T14:38:01.460Z,66.08
2018-02-17T14:40:30.779Z,65.80
2018-02-17T14:42:59.980Z,66.39
2018-02-17T14:45:29.197Z,64.50
2018-02-17T14:47:59.204Z,64.23
2018-02-17T14:50:28.469Z,64.94
2018-02-17T14:52:57.868Z,65.27
2018-02-17T14:55:27.126Z,65.90
2018-02-17T14:57:56.352Z,66.05
2018-02-17T15:00:25.617Z,66.16
2018-02-17T15:02:56.308Z,66.24
2018-02-17T15:05:25.531Z,66.49
2018-02-17T15:07:54.951Z,66.27
2018-02-17T15:10:24.161Z,67.00
2018-02-17T15:12:53.397Z,66.46
2018-02-17T15:15:22.616Z,66.44
2018-02-17T15:17:52.990Z,66.72
2018-02-17T15:20:22.209Z,65.83
2018-02-17T15:22:51.527Z,65.93
2018-02-17T15:25:20.744Z,65.83
2018-02-17T15:27:49.951Z,65.45
2018-02-17T15:30:19.929Z,65.72
2018-02-17T15:32:50.734Z,65.35
2018-02-17T15:35:19.994Z,65.67
2018-02-17T15:37:49.153Z,66.24
2018-02-17T15:40:18.376Z,66.20
2018-02-17T15:42:47.598Z,66.75
2018-02-17T15:45:17.603Z,66.78
2018-02-17T15:47:47.656Z,66.74
2018-02-17T15:50:16.887Z,66.72
2018-02-17T15:52:46.148Z,67.05
2018-02-17T15:55:15.385Z,66.87
2018-02-17T15:57:44.579Z,67.08
2018-02-17T16:00:13.822Z,66.89
2018-02-17T16:02:43.991Z,67.56
2018-02-17T16:05:13.226Z,67.11
2018-02-17T16:07:43.222Z,66.86
2018-02-17T16:10:12.443Z,67.32
2018-02-17T16:12:42.591Z,67.32
2018-02-17T16:15:11.795Z,67.37
2018-02-17T16:17:41.023Z,67.08
2018-02-17T16:20:10.258Z,67.56
2018-02-17T16:22:40.263Z,67.78
2018-02-17T16:25:10.240Z,67.70
2018-02-17T16:27:39.527Z,67.98
2018-02-17T16:30:09.510Z,68.10
2018-02-17T16:32:39.519Z,67.53
2018-02-17T16:35:09.484Z,67.54
2018-02-17T16:37:38.744Z,67.56
2018-02-17T16:40:07.956Z,67.76
2018-02-17T16:42:37.199Z,67.44
2018-02-17T16:45:06.498Z,67.34
2018-02-17T16:47:35.712Z,67.95
2018-02-17T16:50:05.760Z,68.01
2018-02-17T16:52:35.259Z,68.08
2018-02-17T16:55:04.476Z,68.06
2018-02-17T16:57:33.749Z,68.14
2018-02-17T17:00:03.759Z,68.33
2018-02-17T17:02:33.784Z,68.41
2018-02-17T17:05:03.750Z,68.48
2018-02-17T17:07:33.002Z,68.90
2018-02-17T17:10:03.018Z,69.34
2018-02-17T17:12:32.231Z,69.64
2018-02-17T17:15:01.506Z,69.25
2018-02-17T17:17:30.888Z,69.83
2018-02-17T17:20:00.103Z,70.18
2018-02-17T17:22:30.095Z,70.45
2018-02-17T17:24:59.490Z,70.66
2018-02-17T17:27:28.749Z,70.58
2018-02-17T17:29:58.180Z,71.22
2018-02-17T17:32:27.450Z,71.34
2018-02-17T17:34:57.452Z,70.84
2018-02-17T17:37:26.660Z,70.90
2018-02-17T17:39:55.905Z,70.90
2018-02-17T17:42:25.099Z,71.16
2018-02-17T17:44:54.383Z,71.44
2018-02-17T17:47:23.599Z,71.83
2018-02-17T17:49:52.831Z,72.13
2018-02-17T17:52:22.060Z,72.21
2018-02-17T17:54:51.325Z,71.93
2018-02-17T17:57:20.484Z,72.06
2018-02-17T17:59:49.722Z,72.25
2018-02-17T18:02:18.959Z,72.71
2018-02-17T18:04:48.169Z,72.93
2018-02-17T18:07:17.707Z,73.21
2018-02-17T18:09:47.696Z,73.68
2018-02-17T18:12:16.975Z,74.05
2018-02-17T18:14:46.197Z,74.14
2018-02-17T18:17:15.424Z,74.44
2018-02-17T18:19:44.682Z,74.71
2018-02-17T18:22:13.905Z,74.78
2018-02-17T18:24:43.131Z,74.69
2018-02-17T18:27:12.405Z,75.03
2018-02-17T18:29:42.444Z,74.88
2018-02-17T18:32:11.668Z,74.75
2018-02-17T18:34:40.886Z,74.87
2018-02-17T18:37:10.096Z,75.03
2018-02-17T18:39:39.313Z,75.17
2018-02-17T18:42:08.518Z,75.30
2018-02-17T18:44:38.515Z,75.29
2018-02-17T18:47:07.701Z,75.22
2018-02-17T18:49:36.920Z,75.17
2018-02-17T18:52:06.191Z,75.17
2018-02-17T18:54:35.427Z,75.46
2018-02-17T18:57:05.175Z,75.64
2018-02-17T18:59:34.401Z,75.76
2018-02-17T19:02:03.641Z,75.80
2018-02-17T19:04:33.591Z,75.82
2018-02-17T19:07:02.920Z,75.90
2018-02-17T19:09:33.785Z,75.89
2018-02-17T19:12:03.780Z,75.85
2018-02-17T19:14:33.011Z,75.71
2018-02-17T19:17:02.266Z,75.75
2018-02-17T19:19:31.504Z,75.87
2018-02-17T19:22:00.764Z,76.02
2018-02-17T19:24:29.996Z,76.33
2018-02-17T19:26:59.993Z,76.46
2018-02-17T19:29:29.251Z,76.35
2018-02-17T19:31:58.477Z,75.79
2018-02-17T19:34:27.703Z,75.78
2018-02-17T19:36:57.688Z,75.39
2018-02-17T19:39:26.931Z,74.96
2018-02-17T19:41:56.157Z,74.63
2018-02-17T19:44:25.389Z,74.30
2018-02-17T19:46:55.405Z,74.35
2018-02-17T19:49:24.649Z,73.90
2018-02-17T19:51:53.912Z,73.52
2018-02-17T19:54:23.136Z,73.59
2018-02-17T19:56:52.391Z,73.58
2018-02-17T19:59:22.976Z,73.46
2018-02-17T20:01:52.208Z,73.58
2018-02-17T20:04:21.443Z,73.48
2018-02-17T20:06:51.444Z,73.68
2018-02-17T20:09:20.686Z,73.76
2018-02-17T20:11:50.064Z,73.77
2018-02-17T20:14:19.344Z,73.69
2018-02-17T20:16:48.713Z,73.96
2018-02-17T20:19:17.979Z,74.11
2018-02-17T20:21:47.264Z,74.41
2018-02-17T20:24:17.251Z,74.56
2018-02-17T20:26:46.508Z,74.70
2018-02-17T20:29:15.711Z,74.98
2018-02-17T20:31:44.974Z,75.32
2018-02-17T20:34:14.201Z,75.66
2018-02-17T20:36:43.435Z,76.07
2018-02-17T20:39:12.645Z,76.32
2018-02-17T20:41:42.522Z,76.62
2018-02-17T20:44:11.740Z,77.26
2018-02-17T20:46:40.981Z,77.61
2018-02-17T20:49:10.957Z,77.96
2018-02-17T20:51:40.196Z,78.21
2018-02-17T20:54:09.607Z,78.47
2018-02-17T20:56:39.758Z,78.73
2018-02-17T20:59:09.900Z,78.64
2018-02-17T21:01:39.169Z,78.84
2018-02-17T21:04:08.463Z,79.12
2018-02-17T21:06:37.665Z,79.15
2018-02-17T21:09:06.883Z,79.24
2018-02-17T21:11:36.120Z,79.33
2018-02-17T21:14:06.184Z,79.34
2018-02-17T21:16:35.373Z,79.62
2018-02-17T21:19:04.643Z,79.60
2018-02-17T21:21:33.879Z,79.35
2018-02-17T21:24:03.118Z,79.54
2018-02-17T21:26:33.133Z,79.71
2018-02-17T21:29:03.867Z,79.51
2018-02-17T21:31:33.844Z,79.44
2018-02-17T21:34:03.080Z,79.28
2018-02-17T21:36:32.297Z,79.26
2018-02-17T21:39:02.335Z,79.22
2018-02-17T21:41:31.704Z,79.50
2018-02-17T21:44:01.766Z,79.65
2018-02-17T21:46:30.973Z,79.75
2018-02-17T21:49:00.193Z,79.51
2018-02-17T21:51:29.475Z,79.60
2018-02-17T21:53:58.651Z,79.35
2018-02-17T21:56:27.875Z,79.38
2018-02-17T21:58:57.151Z,79.36
2018-02-17T22:01:26.488Z,79.38
2018-02-17T22:03:55.697Z,79.44
2018-02-17T22:06:24.925Z,79.28
2018-02-17T22:08:54.133Z,79.33
2018-02-17T22:11:23.367Z,79.53
2018-02-17T22:13:52.599Z,79.61
2018-02-17T22:16:22.607Z,79.61
2018-02-17T22:18:51.868Z,79.78
2018-02-17T22:21:21.080Z,80.01
2018-02-17T22:23:51.967Z,80.19
2018-02-17T22:26:21.435Z,80.24
2018-02-17T22:28:50.656Z,80.49
2018-02-17T22:31:19.910Z,80.53
2018-02-17T22:33:49.133Z,80.80
2018-02-17T22:36:19.178Z,80.93
2018-02-17T22:38:48.433Z,81.02
2018-02-17T22:41:19.176Z,80.56
2018-02-17T22:43:49.178Z,80.72
2018-02-17T22:46:18.430Z,80.98
2018-02-17T22:48:47.655Z,81.12
2018-02-17T22:51:16.874Z,81.21
2018-02-17T22:53:46.145Z,81.30
2018-02-17T22:56:15.655Z,81.34
2018-02-17T22:58:44.919Z,81.21
2018-02-17T23:01:14.254Z,81.34
2018-02-17T23:03:43.598Z,81.54
2018-02-17T23:06:13.755Z,81.67
2018-02-17T23:08:44.057Z,81.84
2018-02-17T23:11:14.254Z,81.90
2018-02-17T23:13:43.524Z,81.96
2018-02-17T23:16:12.863Z,81.88
2018-02-17T23:18:42.957Z,82.02
2018-02-17T23:21:12.230Z,82.14
2018-02-17T23:23:41.451Z,82.28
2018-02-17T23:26:10.691Z,82.25
2018-02-17T23:28:40.711Z,82.37
2018-02-17T23:31:09.966Z,82.45
2018-02-17T23:33:39.188Z,82.41
2018-02-17T23:36:09.295Z,82.28
2018-02-17T23:38:38.523Z,82.27
2018-02-17T23:41:07.787Z,82.24
2018-02-17T23:43:37.020Z,82.17
2018-02-17T23:46:06.290Z,82.32
2018-02-17T23:48:35.495Z,82.41
2018-02-17T23:51:05.484Z,82.31
2018-02-17T23:53:34.701Z,82.23
2018-02-17T23:56:04.709Z,82.07
2018-02-17T23:58:35.422Z,82.04
